Vernon, Canada
Current Conditions -  °F | °C
As of 12:35 AM on Sunday 21 Dec 2014 (Local Time) from CYLW Reporting Station
Overcast Overcast  
Wind Chill: 36°   Ceiling: 5000
Heat Index: 36°   Visibility: 9mi
Dew Point: 36°   Wind: 2mph
Humidity: 100%   Direction: NA
Pressure: 29.38"   Gusts: NA
Location:  50.27°N, 119.27°W
Report Text: CYLW 210835Z AUTO VRB02KT 9SM SCT034 BKN050 BKN060 OVC087 02/02 A2938 RMK SLP961
Loading
Personal Weather Stations






























Interactive Weather Map New forecast layout! Learn more

10-Day Weather Forecast

Advertisements
Track Severe Weather on mobile